sensor_id;sensor_type;location;lat;lon;timestamp;pressure;altitude;pressure_sealevel;temperature;humidity
13836;BME280;6988;52.614;13.500;2023-09-19T00:04:37;53972.75;;;-143.77;76.72
13836;BME280;6988;52.614;13.500;2023-09-19T00:09:30;53999.44;;;-143.77;77.08
13836;BME280;6988;52.614;13.500;2023-09-19T00:14:28;54001.47;;;-143.77;77.07
13836;BME280;6988;52.614;13.500;2023-09-19T00:19:20;53978.91;;;-143.77;77.05
13836;BME280;6988;52.614;13.500;2023-09-19T00:24:13;53985.06;;;-143.77;77.09
13836;BME280;6988;52.614;13.500;2023-09-19T00:29:08;54003.53;;;-143.77;77.28
13836;BME280;6988;52.614;13.500;2023-09-19T00:34:01;54005.59;;;-143.77;77.34
13836;BME280;6988;52.614;13.500;2023-09-19T00:39:00;53993.28;;;-143.77;77.34
13836;BME280;6988;52.614;13.500;2023-09-19T00:43:56;54003.53;;;-143.77;77.25
13836;BME280;6988;52.614;13.500;2023-09-19T00:48:48;53983.00;;;-143.77;77.58
13836;BME280;6988;52.614;13.500;2023-09-19T00:53:41;54011.75;;;-143.77;77.04
13836;BME280;6988;52.614;13.500;2023-09-19T00:58:37;54022.00;;;-143.77;77.11
13836;BME280;6988;52.614;13.500;2023-09-19T01:03:29;53999.44;;;-143.77;77.55
13836;BME280;6988;52.614;13.500;2023-09-19T01:08:21;54011.75;;;-143.77;77.49
13836;BME280;6988;52.614;13.500;2023-09-19T01:13:27;53995.31;;;-143.77;77.24
13836;BME280;6988;52.614;13.500;2023-09-19T01:18:35;54005.59;;;-143.77;77.64
13836;BME280;6988;52.614;13.500;2023-09-19T01:23:45;53991.22;;;-143.77;77.86
13836;BME280;6988;52.614;13.500;2023-09-19T01:29:16;54044.56;;;-143.77;78.32
13836;BME280;6988;52.614;13.500;2023-09-19T01:34:12;54024.06;;;-143.77;78.28
13836;BME280;6988;52.614;13.500;2023-09-19T01:39:07;54038.41;;;-143.77;78.51
13836;BME280;6988;52.614;13.500;2023-09-19T01:44:06;54044.56;;;-143.77;78.71
13836;BME280;6988;52.614;13.500;2023-09-19T01:49:18;54005.59;;;-143.77;78.74
13836;BME280;6988;52.614;13.500;2023-09-19T01:54:24;54001.47;;;-143.77;78.62
13836;BME280;6988;52.614;13.500;2023-09-19T01:59:25;54005.59;;;-143.77;78.72
13836;BME280;6988;52.614;13.500;2023-09-19T02:04:19;54040.47;;;-143.77;78.56
13836;BME280;6988;52.614;13.500;2023-09-19T02:09:12;53999.44;;;-143.77;78.41
13836;BME280;6988;52.614;13.500;2023-09-19T02:14:04;54017.91;;;-143.77;78.28
13836;BME280;6988;52.614;13.500;2023-09-19T02:18:59;54019.94;;;-143.77;78.13
13836;BME280;6988;52.614;13.500;2023-09-19T02:23:52;54056.88;;;-143.77;78.13
13836;BME280;6988;52.614;13.500;2023-09-19T02:28:44;54067.13;;;-143.77;78.08
13836;BME280;6988;52.614;13.500;2023-09-19T02:33:36;54054.81;;;-143.77;78.30
13836;BME280;6988;52.614;13.500;2023-09-19T02:38:28;54028.16;;;-143.77;78.18
13836;BME280;6988;52.614;13.500;2023-09-19T02:43:22;54060.97;;;-143.77;78.28
13836;BME280;6988;52.614;13.500;2023-09-19T02:48:13;54048.66;;;-143.77;78.87
13836;BME280;6988;52.614;13.500;2023-09-19T02:53:06;54038.41;;;-143.77;78.89
13836;BME280;6988;52.614;13.500;2023-09-19T02:57:57;54030.22;;;-143.77;78.91
13836;BME280;6988;52.614;13.500;2023-09-19T03:02:54;54054.81;;;-143.77;79.20
13836;BME280;6988;52.614;13.500;2023-09-19T03:07:47;54040.47;;;-143.77;79.48
13836;BME280;6988;52.614;13.500;2023-09-19T03:12:41;54048.66;;;-143.77;79.50
13836;BME280;6988;52.614;13.500;2023-09-19T03:17:33;54040.47;;;-143.77;79.64
13836;BME280;6988;52.614;13.500;2023-09-19T03:22:26;54060.97;;;-143.77;79.67
13836;BME280;6988;52.614;13.500;2023-09-19T03:27:19;54054.81;;;-143.77;79.83
13836;BME280;6988;52.614;13.500;2023-09-19T03:32:12;54067.13;;;-143.77;79.28
13836;BME280;6988;52.614;13.500;2023-09-19T03:37:04;54050.72;;;-143.77;78.61
13836;BME280;6988;52.614;13.500;2023-09-19T03:41:58;54042.50;;;-143.77;77.62
13836;BME280;6988;52.614;13.500;2023-09-19T03:46:50;54044.56;;;-143.77;75.43
13836;BME280;6988;52.614;13.500;2023-09-19T03:51:42;54065.09;;;-143.77;75.33
13836;BME280;6988;52.614;13.500;2023-09-19T03:56:34;54036.38;;;-143.77;73.88
13836;BME280;6988;52.614;13.500;2023-09-19T04:01:27;54011.75;;;-143.77;73.43
13836;BME280;6988;52.614;13.500;2023-09-19T04:06:21;54056.88;;;-143.77;73.82
13836;BME280;6988;52.614;13.500;2023-09-19T04:11:13;54056.88;;;-143.77;72.95
13836;BME280;6988;52.614;13.500;2023-09-19T04:16:05;54073.28;;;-143.77;72.77
13836;BME280;6988;52.614;13.500;2023-09-19T04:20:59;54114.31;;;-143.77;72.48
13836;BME280;6988;52.614;13.500;2023-09-19T04:25:53;54075.34;;;-143.77;72.33
13836;BME280;6988;52.614;13.500;2023-09-19T04:30:44;54069.19;;;-143.77;72.28
13836;BME280;6988;52.614;13.500;2023-09-19T04:35:36;54073.28;;;-143.77;72.38
13836;BME280;6988;52.614;13.500;2023-09-19T04:40:30;54089.72;;;-143.77;72.56
13836;BME280;6988;52.614;13.500;2023-09-19T04:45:23;54065.09;;;-143.77;72.59
13836;BME280;6988;52.614;13.500;2023-09-19T04:50:15;54069.19;;;-143.77;72.35
13836;BME280;6988;52.614;13.500;2023-09-19T04:55:08;54065.09;;;-143.77;72.18
13836;BME280;6988;52.614;13.500;2023-09-19T05:00:03;54104.06;;;-143.77;72.24
13836;BME280;6988;52.614;13.500;2023-09-19T05:05:01;54179.97;;;-143.77;72.23
13836;BME280;6988;52.614;13.500;2023-09-19T05:09:55;54106.13;;;-143.77;72.46
13836;BME280;6988;52.614;13.500;2023-09-19T05:14:47;54063.03;;;-143.77;71.62
13836;BME280;6988;52.614;13.500;2023-09-19T05:19:40;54093.81;;;-143.77;72.08
13836;BME280;6988;52.614;13.500;2023-09-19T05:24:31;54097.91;;;-143.77;72.09
13836;BME280;6988;52.614;13.500;2023-09-19T05:29:23;54112.28;;;-143.77;71.78
13836;BME280;6988;52.614;13.500;2023-09-19T05:34:15;54071.25;;;-143.77;72.01
13836;BME280;6988;52.614;13.500;2023-09-19T05:39:08;54108.16;;;-143.77;72.06
13836;BME280;6988;52.614;13.500;2023-09-19T05:44:02;54063.03;;;-143.77;72.31
13836;BME280;6988;52.614;13.500;2023-09-19T05:48:54;54085.59;;;-143.77;72.65
13836;BME280;6988;52.614;13.500;2023-09-19T05:53:47;54089.72;;;-143.77;72.51
13836;BME280;6988;52.614;13.500;2023-09-19T05:58:40;54112.28;;;-143.77;72.30
13836;BME280;6988;52.614;13.500;2023-09-19T06:03:34;54118.44;;;-143.77;72.16
13836;BME280;6988;52.614;13.500;2023-09-19T06:08:27;54087.66;;;-143.77;72.27
13836;BME280;6988;52.614;13.500;2023-09-19T06:13:19;54077.41;;;-143.77;71.93
13836;BME280;6988;52.614;13.500;2023-09-19T06:18:13;54075.34;;;-143.77;71.48
13836;BME280;6988;52.614;13.500;2023-09-19T06:23:09;54071.25;;;-143.77;71.30
13836;BME280;6988;52.614;13.500;2023-09-19T06:28:01;54069.19;;;-143.77;70.80
13836;BME280;6988;52.614;13.500;2023-09-19T06:32:56;54081.50;;;-143.77;70.49
13836;BME280;6988;52.614;13.500;2023-09-19T06:37:50;53999.44;;;-143.77;70.22
13836;BME280;6988;52.614;13.500;2023-09-19T06:42:43;53978.91;;;-143.77;69.20
13836;BME280;6988;52.614;13.500;2023-09-19T06:47:35;53937.88;;;-143.77;67.94
13836;BME280;6988;52.614;13.500;2023-09-19T06:52:27;53941.97;;;-143.77;66.91
13836;BME280;6988;52.614;13.500;2023-09-19T06:57:20;53892.75;;;-143.77;66.29
13836;BME280;6988;52.614;13.500;2023-09-19T07:02:12;53921.47;;;-143.77;65.12
13836;BME280;6988;52.614;13.500;2023-09-19T07:07:05;53812.72;;;-143.77;64.49
13836;BME280;6988;52.614;13.500;2023-09-19T07:11:59;53841.44;;;-143.77;62.54
13836;BME280;6988;52.614;13.500;2023-09-19T07:16:52;53880.44;;;-143.77;62.40
13836;BME280;6988;52.614;13.500;2023-09-19T07:21:45;53872.22;;;-143.77;61.18
13836;BME280;6988;52.614;13.500;2023-09-19T07:26:38;53884.53;;;-143.77;61.51
13836;BME280;6988;52.614;13.500;2023-09-19T07:31:30;53923.53;;;-143.77;61.59
13836;BME280;6988;52.614;13.500;2023-09-19T07:36:23;53923.53;;;-143.77;61.91
13836;BME280;6988;52.614;13.500;2023-09-19T07:41:15;53927.63;;;-143.77;61.81
13836;BME280;6988;52.614;13.500;2023-09-19T07:46:08;53849.66;;;-143.77;61.57
13836;BME280;6988;52.614;13.500;2023-09-19T07:51:02;53921.47;;;-143.77;61.01
13836;BME280;6988;52.614;13.500;2023-09-19T07:56:04;53905.06;;;-143.77;60.88
13836;BME280;6988;52.614;13.500;2023-09-19T08:00:56;53859.91;;;-143.77;60.15
13836;BME280;6988;52.614;13.500;2023-09-19T08:05:55;53769.66;;;-143.77;59.23
13836;BME280;6988;52.614;13.500;2023-09-19T08:10:53;53761.44;;;-143.77;55.68
13836;BME280;6988;52.614;13.500;2023-09-19T08:15:48;53896.84;;;-143.77;55.70
13836;BME280;6988;52.614;13.500;2023-09-19T08:20:39;53886.59;;;-143.77;55.71
13836;BME280;6988;52.614;13.500;2023-09-19T08:25:32;53909.16;;;-143.77;54.89
13836;BME280;6988;52.614;13.500;2023-09-19T08:30:24;53861.97;;;-143.77;54.89
13836;BME280;6988;52.614;13.500;2023-09-19T08:35:19;53818.88;;;-143.77;55.30
13836;BME280;6988;52.614;13.500;2023-09-19T08:40:11;53870.19;;;-143.77;55.21
13836;BME280;6988;52.614;13.500;2023-09-19T08:45:05;53728.63;;;-143.77;54.56
13836;BME280;6988;52.614;13.500;2023-09-19T08:50:09;53827.09;;;-143.77;53.67
13836;BME280;6988;52.614;13.500;2023-09-19T08:55:12;53689.63;;;-143.77;53.41
13836;BME280;6988;52.614;13.500;2023-09-19T09:00:05;53673.22;;;-143.77;52.99
13836;BME280;6988;52.614;13.500;2023-09-19T09:05:01;53603.47;;;-143.77;52.07
13836;BME280;6988;52.614;13.500;2023-09-19T09:09:56;53761.44;;;-143.77;50.66
13836;BME280;6988;52.614;13.500;2023-09-19T09:14:49;53621.94;;;-143.77;50.89
13836;BME280;6988;52.614;13.500;2023-09-19T09:19:43;53794.28;;;-143.77;49.86
13836;BME280;6988;52.614;13.500;2023-09-19T09:24:35;53564.50;;;-143.77;49.95
13836;BME280;6988;52.614;13.500;2023-09-19T09:29:45;53529.63;;;-143.77;48.70
13836;BME280;6988;52.614;13.500;2023-09-19T09:34:41;53478.34;;;-143.77;45.10
13836;BME280;6988;52.614;13.500;2023-09-19T09:39:33;53570.66;;;-143.77;45.27
13836;BME280;6988;52.614;13.500;2023-09-19T09:44:25;53441.41;;;-143.77;45.03
13836;BME280;6988;52.614;13.500;2023-09-19T09:49:24;53494.75;;;-143.77;43.73
13836;BME280;6988;52.614;13.500;2023-09-19T09:54:19;53422.94;;;-143.77;42.83
13836;BME280;6988;52.614;13.500;2023-09-19T09:59:11;53480.38;;;-143.77;42.91
13836;BME280;6988;52.614;13.500;2023-09-19T10:04:08;53658.88;;;-143.77;42.46
13836;BME280;6988;52.614;13.500;2023-09-19T10:09:02;53486.53;;;-143.77;42.96
13836;BME280;6988;52.614;13.500;2023-09-19T10:14:03;53476.28;;;-143.77;43.32
13836;BME280;6988;52.614;13.500;2023-09-19T10:19:02;53525.53;;;-143.77;42.71
13836;BME280;6988;52.614;13.500;2023-09-19T10:23:54;53486.53;;;-143.77;42.72
13836;BME280;6988;52.614;13.500;2023-09-19T10:28:49;53568.59;;;-143.77;41.64
13836;BME280;6988;52.614;13.500;2023-09-19T10:33:44;53505.00;;;-143.77;41.02
13836;BME280;6988;52.614;13.500;2023-09-19T10:38:38;53511.16;;;-143.77;40.76
13836;BME280;6988;52.614;13.500;2023-09-19T10:43:33;53472.19;;;-143.77;41.20
13836;BME280;6988;52.614;13.500;2023-09-19T10:48:26;53447.56;;;-143.77;40.60
13836;BME280;6988;52.614;13.500;2023-09-19T10:53:20;53453.72;;;-143.77;41.16
13836;BME280;6988;52.614;13.500;2023-09-19T10:58:26;53437.31;;;-143.77;40.06
13836;BME280;6988;52.614;13.500;2023-09-19T11:03:21;53420.91;;;-143.77;39.72
13836;BME280;6988;52.614;13.500;2023-09-19T11:08:21;53437.31;;;-143.77;39.35
13836;BME280;6988;52.614;13.500;2023-09-19T11:13:24;53660.91;;;-143.77;40.42
13836;BME280;6988;52.614;13.500;2023-09-19T11:18:52;53716.31;;;-143.77;40.02
13836;BME280;6988;52.614;13.500;2023-09-19T11:24:28;53609.63;;;-143.77;40.88
13836;BME280;6988;52.614;13.500;2023-09-19T11:29:26;53652.72;;;-143.77;40.31
13836;BME280;6988;52.614;13.500;2023-09-19T11:34:39;53593.22;;;-143.77;40.36
13836;BME280;6988;52.614;13.500;2023-09-19T11:39:33;53570.66;;;-143.77;40.50
13836;BME280;6988;52.614;13.500;2023-09-19T11:44:34;53626.03;;;-143.77;40.00
13836;BME280;6988;52.614;13.500;2023-09-19T11:49:30;53597.31;;;-143.77;40.41
13836;BME280;6988;52.614;13.500;2023-09-19T11:54:23;53716.31;;;-143.77;40.46
13836;BME280;6988;52.614;13.500;2023-09-19T11:59:22;53660.91;;;-143.77;40.61
13836;BME280;6988;52.614;13.500;2023-09-19T12:04:14;53718.34;;;-143.77;40.65
13836;BME280;6988;52.614;13.500;2023-09-19T12:09:12;53679.38;;;-143.77;41.68
13836;BME280;6988;52.614;13.500;2023-09-19T12:14:08;53712.22;;;-143.77;40.61
13836;BME280;6988;52.614;13.500;2023-09-19T12:19:18;53650.66;;;-143.77;40.33
13836;BME280;6988;52.614;13.500;2023-09-19T12:24:12;53642.47;;;-143.77;39.95
13836;BME280;6988;52.614;13.500;2023-09-19T12:29:04;53628.09;;;-143.77;40.36
13836;BME280;6988;52.614;13.500;2023-09-19T12:34:01;53662.97;;;-143.77;40.05
13836;BME280;6988;52.614;13.500;2023-09-19T12:38:53;53665.03;;;-143.77;40.25
13836;BME280;6988;52.614;13.500;2023-09-19T12:43:45;53626.03;;;-143.77;40.10
13836;BME280;6988;52.614;13.500;2023-09-19T12:48:37;53632.19;;;-143.77;40.27
13836;BME280;6988;52.614;13.500;2023-09-19T12:53:38;53654.75;;;-143.77;40.25
13836;BME280;6988;52.614;13.500;2023-09-19T12:58:32;53658.88;;;-143.77;39.32
13836;BME280;6988;52.614;13.500;2023-09-19T13:03:27;53671.19;;;-143.77;39.26
13836;BME280;6988;52.614;13.500;2023-09-19T13:08:25;53658.88;;;-143.77;39.66
13836;BME280;6988;52.614;13.500;2023-09-19T13:13:34;53699.91;;;-143.77;40.12
13836;BME280;6988;52.614;13.500;2023-09-19T13:18:26;53687.59;;;-143.77;40.62
13836;BME280;6988;52.614;13.500;2023-09-19T13:23:26;53708.09;;;-143.77;40.52
13836;BME280;6988;52.614;13.500;2023-09-19T13:28:18;53675.28;;;-143.77;40.71
13836;BME280;6988;52.614;13.500;2023-09-19T13:33:12;53716.31;;;-143.77;40.47
13836;BME280;6988;52.614;13.500;2023-09-19T13:38:10;53722.47;;;-143.77;40.90
13836;BME280;6988;52.614;13.500;2023-09-19T13:43:02;53749.13;;;-143.77;41.48
13836;BME280;6988;52.614;13.500;2023-09-19T13:47:53;53769.66;;;-143.77;41.70
13836;BME280;6988;52.614;13.500;2023-09-19T13:52:47;53720.41;;;-143.77;41.34
13836;BME280;6988;52.614;13.500;2023-09-19T13:57:41;53773.75;;;-143.77;40.85
13836;BME280;6988;52.614;13.500;2023-09-19T14:02:34;53767.59;;;-143.77;41.06
13836;BME280;6988;52.614;13.500;2023-09-19T14:07:25;53761.44;;;-143.77;41.96
13836;BME280;6988;52.614;13.500;2023-09-19T14:12:19;53769.66;;;-143.77;42.28
13836;BME280;6988;52.614;13.500;2023-09-19T14:17:11;53745.03;;;-143.77;42.48
13836;BME280;6988;52.614;13.500;2023-09-19T14:22:04;53716.31;;;-143.77;41.45
13836;BME280;6988;52.614;13.500;2023-09-19T14:26:58;53728.63;;;-143.77;41.90
13836;BME280;6988;52.614;13.500;2023-09-19T14:31:51;53710.16;;;-143.77;42.02
13836;BME280;6988;52.614;13.500;2023-09-19T14:36:43;53732.72;;;-143.77;41.71
13836;BME280;6988;52.614;13.500;2023-09-19T14:41:35;53728.63;;;-143.77;41.82
13836;BME280;6988;52.614;13.500;2023-09-19T14:46:27;53747.09;;;-143.77;41.74
13836;BME280;6988;52.614;13.500;2023-09-19T14:51:20;53724.50;;;-143.77;41.97
13836;BME280;6988;52.614;13.500;2023-09-19T14:56:13;53724.50;;;-143.77;42.18
13836;BME280;6988;52.614;13.500;2023-09-19T15:01:10;53732.72;;;-143.77;42.17
13836;BME280;6988;52.614;13.500;2023-09-19T15:06:03;53732.72;;;-143.77;42.36
13836;BME280;6988;52.614;13.500;2023-09-19T15:10:57;53757.34;;;-143.77;42.71
13836;BME280;6988;52.614;13.500;2023-09-19T15:15:59;53759.41;;;-143.77;41.91
13836;BME280;6988;52.614;13.500;2023-09-19T15:20:51;53740.94;;;-143.77;42.75
13836;BME280;6988;52.614;13.500;2023-09-19T15:25:48;53765.53;;;-143.77;42.77
13836;BME280;6988;52.614;13.500;2023-09-19T15:30:41;53798.38;;;-143.77;42.88
13836;BME280;6988;52.614;13.500;2023-09-19T15:35:33;53796.31;;;-143.77;42.86
13836;BME280;6988;52.614;13.500;2023-09-19T15:40:27;53771.69;;;-143.77;42.54
13836;BME280;6988;52.614;13.500;2023-09-19T15:45:19;53810.69;;;-143.77;42.88
13836;BME280;6988;52.614;13.500;2023-09-19T15:50:12;53792.22;;;-143.77;42.59
13836;BME280;6988;52.614;13.500;2023-09-19T15:55:06;53788.13;;;-143.77;43.07
13836;BME280;6988;52.614;13.500;2023-09-19T15:59:59;53827.09;;;-143.77;43.15
13836;BME280;6988;52.614;13.500;2023-09-19T16:04:51;53827.09;;;-143.77;43.18
13836;BME280;6988;52.614;13.500;2023-09-19T16:09:44;53798.38;;;-143.77;43.29
13836;BME280;6988;52.614;13.500;2023-09-19T16:14:36;53798.38;;;-143.77;43.46
13836;BME280;6988;52.614;13.500;2023-09-19T16:19:28;53798.38;;;-143.77;43.71
13836;BME280;6988;52.614;13.500;2023-09-19T16:24:20;53804.53;;;-143.77;43.91
13836;BME280;6988;52.614;13.500;2023-09-19T16:29:13;53851.72;;;-143.77;43.91
13836;BME280;6988;52.614;13.500;2023-09-19T16:34:05;53839.41;;;-143.77;44.02
13836;BME280;6988;52.614;13.500;2023-09-19T16:38:57;53829.16;;;-143.77;44.10
13836;BME280;6988;52.614;13.500;2023-09-19T16:43:50;53843.50;;;-143.77;44.16
13836;BME280;6988;52.614;13.500;2023-09-19T16:48:46;53868.13;;;-143.77;44.68
13836;BME280;6988;52.614;13.500;2023-09-19T16:53:40;53882.50;;;-143.77;44.61
13836;BME280;6988;52.614;13.500;2023-09-19T16:58:32;53878.38;;;-143.77;45.32
13836;BME280;6988;52.614;13.500;2023-09-19T17:03:25;53855.81;;;-143.77;45.18
13836;BME280;6988;52.614;13.500;2023-09-19T17:08:18;53849.66;;;-143.77;45.70
13836;BME280;6988;52.614;13.500;2023-09-19T17:13:10;53933.78;;;-143.77;46.22
13836;BME280;6988;52.614;13.500;2023-09-19T17:18:03;53905.06;;;-143.77;46.18
13836;BME280;6988;52.614;13.500;2023-09-19T17:22:56;53909.16;;;-143.77;47.06
13836;BME280;6988;52.614;13.500;2023-09-19T17:27:49;53925.56;;;-143.77;47.13
13836;BME280;6988;52.614;13.500;2023-09-19T17:32:41;53931.72;;;-143.77;47.63
13836;BME280;6988;52.614;13.500;2023-09-19T17:37:33;53913.25;;;-143.77;47.65
13836;BME280;6988;52.614;13.500;2023-09-19T17:42:25;53917.38;;;-143.77;48.33
13836;BME280;6988;52.614;13.500;2023-09-19T17:47:19;53915.31;;;-143.77;48.66
13836;BME280;6988;52.614;13.500;2023-09-19T17:52:12;53948.13;;;-143.77;49.21
13836;BME280;6988;52.614;13.500;2023-09-19T17:57:05;53937.88;;;-143.77;49.95
13836;BME280;6988;52.614;13.500;2023-09-19T18:01:58;53972.75;;;-143.77;51.54
13836;BME280;6988;52.614;13.500;2023-09-19T18:06:51;53935.84;;;-143.77;51.09
13836;BME280;6988;52.614;13.500;2023-09-19T18:11:43;53933.78;;;-143.77;51.58
13836;BME280;6988;52.614;13.500;2023-09-19T18:16:35;53950.19;;;-143.77;51.52
13836;BME280;6988;52.614;13.500;2023-09-19T18:21:28;53929.69;;;-143.77;50.95
13836;BME280;6988;52.614;13.500;2023-09-19T18:26:22;53944.03;;;-143.77;49.89
13836;BME280;6988;52.614;13.500;2023-09-19T18:31:13;53933.78;;;-143.77;49.46
13836;BME280;6988;52.614;13.500;2023-09-19T18:36:07;53933.78;;;-143.77;48.67
13836;BME280;6988;52.614;13.500;2023-09-19T18:40:59;53946.09;;;-143.77;48.07
13836;BME280;6988;52.614;13.500;2023-09-19T18:45:58;53974.81;;;-143.77;48.08
13836;BME280;6988;52.614;13.500;2023-09-19T18:50:50;53978.91;;;-143.77;47.79
13836;BME280;6988;52.614;13.500;2023-09-19T18:55:42;53937.88;;;-143.77;47.89
13836;BME280;6988;52.614;13.500;2023-09-19T19:00:34;53923.53;;;-143.77;47.98
13836;BME280;6988;52.614;13.500;2023-09-19T19:05:30;53933.78;;;-143.77;47.97
13836;BME280;6988;52.614;13.500;2023-09-19T19:10:23;53941.97;;;-143.77;48.46
13836;BME280;6988;52.614;13.500;2023-09-19T19:15:16;53948.13;;;-143.77;48.42
13836;BME280;6988;52.614;13.500;2023-09-19T19:20:08;53933.78;;;-143.77;48.55
13836;BME280;6988;52.614;13.500;2023-09-19T19:25:03;53954.28;;;-143.77;49.15
13836;BME280;6988;52.614;13.500;2023-09-19T19:29:55;53954.28;;;-143.77;49.12
13836;BME280;6988;52.614;13.500;2023-09-19T19:34:47;53964.56;;;-143.77;49.50
13836;BME280;6988;52.614;13.500;2023-09-19T19:39:39;53941.97;;;-143.77;49.49
13836;BME280;6988;52.614;13.500;2023-09-19T19:44:33;53931.72;;;-143.77;49.46
13836;BME280;6988;52.614;13.500;2023-09-19T19:49:28;53946.09;;;-143.77;50.17
13836;BME280;6988;52.614;13.500;2023-09-19T19:54:20;53958.41;;;-143.77;49.95
13836;BME280;6988;52.614;13.500;2023-09-19T19:59:12;53937.88;;;-143.77;50.45
13836;BME280;6988;52.614;13.500;2023-09-19T20:04:06;53935.84;;;-143.77;50.59
13836;BME280;6988;52.614;13.500;2023-09-19T20:08:58;53946.09;;;-143.77;50.68
13836;BME280;6988;52.614;13.500;2023-09-19T20:13:50;53962.50;;;-143.77;51.02
13836;BME280;6988;52.614;13.500;2023-09-19T20:18:41;53952.25;;;-143.77;51.38
13836;BME280;6988;52.614;13.500;2023-09-19T20:23:35;53941.97;;;-143.77;51.16
13836;BME280;6988;52.614;13.500;2023-09-19T20:28:27;53974.81;;;-143.77;51.19
13836;BME280;6988;52.614;13.500;2023-09-19T20:33:23;53966.59;;;-143.77;51.50
13836;BME280;6988;52.614;13.500;2023-09-19T20:38:15;53974.81;;;-143.77;51.84
13836;BME280;6988;52.614;13.500;2023-09-19T20:43:09;53980.97;;;-143.77;51.85
13836;BME280;6988;52.614;13.500;2023-09-19T20:48:01;53966.59;;;-143.77;51.81
13836;BME280;6988;52.614;13.500;2023-09-19T20:52:52;53972.75;;;-143.77;52.32
13836;BME280;6988;52.614;13.500;2023-09-19T20:57:44;53962.50;;;-143.77;52.42
13836;BME280;6988;52.614;13.500;2023-09-19T21:02:38;53970.72;;;-143.77;52.57
13836;BME280;6988;52.614;13.500;2023-09-19T21:07:30;53978.91;;;-143.77;52.21
13836;BME280;6988;52.614;13.500;2023-09-19T21:12:22;53958.41;;;-143.77;52.51
13836;BME280;6988;52.614;13.500;2023-09-19T21:17:14;53958.41;;;-143.77;52.35
13836;BME280;6988;52.614;13.500;2023-09-19T21:22:07;53974.81;;;-143.77;52.07
13836;BME280;6988;52.614;13.500;2023-09-19T21:26:59;53962.50;;;-143.77;52.10
13836;BME280;6988;52.614;13.500;2023-09-19T21:31:55;53954.28;;;-143.77;52.06
13836;BME280;6988;52.614;13.500;2023-09-19T21:36:47;53983.00;;;-143.77;52.11
13836;BME280;6988;52.614;13.500;2023-09-19T21:41:42;53995.31;;;-143.77;52.09
13836;BME280;6988;52.614;13.500;2023-09-19T22:04:56;53950.19;;;-143.77;53.21
13836;BME280;6988;52.614;13.500;2023-09-19T22:09:49;53999.44;;;-143.77;53.46
13836;BME280;6988;52.614;13.500;2023-09-19T22:14:41;54011.75;;;-143.77;53.27
13836;BME280;6988;52.614;13.500;2023-09-19T22:19:33;54003.53;;;-143.77;53.38
13836;BME280;6988;52.614;13.500;2023-09-19T22:24:30;54019.94;;;-143.77;53.69
13836;BME280;6988;52.614;13.500;2023-09-19T22:29:22;53987.13;;;-143.77;53.62
13836;BME280;6988;52.614;13.500;2023-09-19T22:34:14;53987.13;;;-143.77;54.13
13836;BME280;6988;52.614;13.500;2023-09-19T22:39:06;53956.34;;;-143.77;54.05
13836;BME280;6988;52.614;13.500;2023-09-19T22:44:04;53974.81;;;-143.77;53.99
13836;BME280;6988;52.614;13.500;2023-09-19T22:48:58;53991.22;;;-143.77;54.12
13836;BME280;6988;52.614;13.500;2023-09-19T22:53:51;54007.63;;;-143.77;54.17
13836;BME280;6988;52.614;13.500;2023-09-19T22:58:48;53983.00;;;-143.77;54.38
13836;BME280;6988;52.614;13.500;2023-09-19T23:03:44;53964.56;;;-143.77;54.19
13836;BME280;6988;52.614;13.500;2023-09-19T23:08:42;54011.75;;;-143.77;54.22
13836;BME280;6988;52.614;13.500;2023-09-19T23:13:34;53993.28;;;-143.77;54.49
13836;BME280;6988;52.614;13.500;2023-09-19T23:18:29;53995.31;;;-143.77;54.67
13836;BME280;6988;52.614;13.500;2023-09-19T23:23:22;53985.06;;;-143.77;54.55
13836;BME280;6988;52.614;13.500;2023-09-19T23:28:15;53991.22;;;-143.77;54.82
13836;BME280;6988;52.614;13.500;2023-09-19T23:33:06;54026.09;;;-143.77;54.89
13836;BME280;6988;52.614;13.500;2023-09-19T23:37:58;54003.53;;;-143.77;55.17
13836;BME280;6988;52.614;13.500;2023-09-19T23:42:52;53987.13;;;-143.77;55.05
13836;BME280;6988;52.614;13.500;2023-09-19T23:47:44;53980.97;;;-143.77;55.41
13836;BME280;6988;52.614;13.500;2023-09-19T23:52:36;53991.22;;;-143.77;55.35
13836;BME280;6988;52.614;13.500;2023-09-19T23:57:28;54038.41;;;-143.77;55.34
